createdAt,value
2023-04-15T00:00:40.298Z,10.05
2023-04-15T00:03:20.194Z,10.15
2023-04-15T00:05:55.968Z,10.18
2023-04-15T00:08:35.585Z,10.04
2023-04-15T00:11:11.682Z,10.13
2023-04-15T00:13:51.822Z,10.07
2023-04-15T00:16:31.970Z,10.09
2023-04-15T00:19:09.838Z,10.01
2023-04-15T00:21:48.534Z,10.00
2023-04-15T00:24:32.613Z,9.94
2023-04-15T00:27:22.494Z,9.95
2023-04-15T00:30:09.211Z,9.93
2023-04-15T00:33:07.093Z,9.92
2023-04-15T00:35:46.057Z,9.87
2023-04-15T00:38:29.106Z,9.83
2023-04-15T00:41:04.588Z,9.79
2023-04-15T00:43:38.948Z,9.82
2023-04-15T00:46:20.894Z,9.64
2023-04-15T00:48:56.980Z,9.75
2023-04-15T00:51:41.815Z,9.70
2023-04-15T00:54:15.589Z,9.66
2023-04-15T00:56:56.655Z,9.55
2023-04-15T00:59:33.292Z,9.61
2023-04-15T01:02:11.007Z,9.57
2023-04-15T01:04:49.099Z,9.49
2023-04-15T01:07:27.341Z,9.56
2023-04-15T01:09:58.326Z,9.51
2023-04-15T01:12:45.401Z,9.47
2023-04-15T01:15:21.070Z,9.51
2023-04-15T01:17:52.289Z,9.49
2023-04-15T01:20:29.138Z,9.52
2023-04-15T01:23:22.128Z,9.52
2023-04-15T01:26:02.224Z,9.53
2023-04-15T01:28:40.496Z,9.39
2023-04-15T01:31:21.690Z,9.52
2023-04-15T01:34:04.369Z,9.45
2023-04-15T01:36:39.945Z,9.48
2023-04-15T01:39:19.719Z,9.49
2023-04-15T01:42:00.696Z,9.48
2023-04-15T01:44:33.607Z,9.43
2023-04-15T01:47:09.875Z,9.44
2023-04-15T01:49:43.636Z,9.23
2023-04-15T01:52:18.205Z,9.41
2023-04-15T01:55:02.662Z,9.31
2023-04-15T01:57:48.043Z,9.28
2023-04-15T02:00:19.861Z,9.29
2023-04-15T02:02:53.449Z,9.28
2023-04-15T02:05:36.428Z,9.25
2023-04-15T02:08:12.065Z,9.23
2023-04-15T02:10:44.711Z,9.09
2023-04-15T02:13:24.201Z,9.21
2023-04-15T02:16:08.381Z,9.05
2023-04-15T02:18:40.162Z,9.23
2023-04-15T02:21:19.185Z,9.26
2023-04-15T02:23:56.965Z,9.24
2023-04-15T02:26:38.363Z,9.16
2023-04-15T02:29:12.090Z,9.17
2023-04-15T02:31:55.092Z,9.19
2023-04-15T02:34:33.485Z,9.19
2023-04-15T02:37:18.830Z,9.14
2023-04-15T02:39:56.192Z,9.09
2023-04-15T02:42:34.501Z,9.12
2023-04-15T02:45:22.665Z,9.09
2023-04-15T02:47:59.292Z,9.11
2023-04-15T02:50:32.943Z,9.16
2023-04-15T02:53:05.631Z,9.16
2023-04-15T02:55:43.199Z,9.16
2023-04-15T02:58:20.022Z,9.17
2023-04-15T03:00:56.736Z,9.17
2023-04-15T03:03:32.174Z,9.15
2023-04-15T03:06:12.286Z,9.13
2023-04-15T03:08:48.246Z,9.13
2023-04-15T03:11:23.489Z,9.14
2023-04-15T03:14:05.581Z,9.11
2023-04-15T03:17:08.041Z,9.08
2023-04-15T03:19:39.370Z,9.05
2023-04-15T03:22:16.882Z,9.01
2023-04-15T03:24:53.785Z,8.98
2023-04-15T03:27:41.995Z,8.84
2023-04-15T03:30:31.165Z,8.84
2023-04-15T03:33:12.972Z,8.87
2023-04-15T03:35:48.356Z,8.85
2023-04-15T03:38:22.813Z,8.79
2023-04-15T03:41:03.011Z,8.81
2023-04-15T03:43:37.441Z,8.62
2023-04-15T03:46:10.214Z,8.73
2023-04-15T03:48:47.596Z,8.65
2023-04-15T03:51:23.298Z,8.71
2023-04-15T03:54:00.974Z,8.66
2023-04-15T03:56:38.696Z,8.67
2023-04-15T03:59:11.637Z,8.57
2023-04-15T04:01:51.529Z,8.68
2023-04-15T04:04:37.164Z,8.59
2023-04-15T04:07:12.873Z,8.39
2023-04-15T04:09:51.834Z,8.49
2023-04-15T04:12:34.959Z,8.52
2023-04-15T04:15:15.014Z,8.48
2023-04-15T04:17:58.748Z,8.42
2023-04-15T04:20:32.582Z,8.21
2023-04-15T04:23:13.189Z,8.28
2023-04-15T04:25:53.307Z,8.35
2023-04-15T04:28:28.031Z,8.36
2023-04-15T04:31:02.500Z,8.34
2023-04-15T04:33:35.788Z,8.30
2023-04-15T04:36:12.513Z,8.33
2023-04-15T04:38:47.640Z,8.38
2023-04-15T04:41:25.612Z,8.38
2023-04-15T04:44:01.661Z,8.46
2023-04-15T04:46:38.480Z,8.50
2023-04-15T04:49:13.458Z,8.55
2023-04-15T04:51:57.590Z,8.58
2023-04-15T04:54:33.576Z,8.66
2023-04-15T04:57:12.741Z,8.70
2023-04-15T04:59:53.190Z,8.68
2023-04-15T05:02:28.506Z,8.71
2023-04-15T05:05:08.587Z,8.69
2023-04-15T05:07:55.777Z,8.80
2023-04-15T05:10:33.784Z,8.82
2023-04-15T05:13:06.817Z,8.87
2023-04-15T05:15:47.873Z,8.92
2023-04-15T05:18:26.251Z,8.98
2023-04-15T05:21:01.808Z,9.01
2023-04-15T05:23:39.237Z,9.07
2023-04-15T05:26:15.064Z,9.09
2023-04-15T05:28:53.505Z,9.27
2023-04-15T05:31:31.385Z,9.34
2023-04-15T05:34:15.125Z,9.36
2023-04-15T05:36:49.083Z,9.35
2023-04-15T05:39:31.998Z,9.61
2023-04-15T05:42:07.703Z,9.66
2023-04-15T05:44:42.384Z,9.76
2023-04-15T05:47:26.339Z,9.82
2023-04-15T05:50:00.258Z,9.90
2023-04-15T05:52:36.625Z,9.99
2023-04-15T05:55:18.090Z,10.05
2023-04-15T05:57:55.684Z,10.17
2023-04-15T06:00:27.993Z,10.25
2023-04-15T06:03:03.863Z,10.33
2023-04-15T06:05:35.997Z,10.41
2023-04-15T06:08:14.588Z,10.45
2023-04-15T06:10:53.595Z,10.61
2023-04-15T06:13:27.466Z,10.64
2023-04-15T06:16:01.176Z,10.84
2023-04-15T06:18:34.059Z,10.96
2023-04-15T06:21:14.332Z,11.09
2023-04-15T06:23:50.668Z,11.20
2023-04-15T06:26:37.522Z,11.31
2023-04-15T06:29:10.988Z,11.44
2023-04-15T06:31:48.065Z,11.57
2023-04-15T06:34:31.846Z,11.61
2023-04-15T06:37:06.315Z,11.74
2023-04-15T06:39:40.000Z,11.87
2023-04-15T06:42:17.520Z,11.94
2023-04-15T06:44:59.210Z,12.11
2023-04-15T06:47:37.414Z,12.11
2023-04-15T06:50:24.390Z,12.15
2023-04-15T06:52:58.459Z,12.28
2023-04-15T06:55:39.743Z,12.22
2023-04-15T06:58:17.874Z,12.63
2023-04-15T07:00:50.921Z,12.77
2023-04-15T07:03:21.812Z,12.92
2023-04-15T07:05:56.060Z,12.95
2023-04-15T07:08:34.874Z,13.03
2023-04-15T07:11:09.306Z,13.05
2023-04-15T07:13:49.192Z,13.03
2023-04-15T07:16:19.871Z,13.08
2023-04-15T07:18:59.039Z,13.00
2023-04-15T07:21:44.851Z,13.06
2023-04-15T07:24:24.131Z,13.06
2023-04-15T07:27:18.532Z,13.27
2023-04-15T07:29:57.446Z,13.36
2023-04-15T07:32:34.753Z,13.46
2023-04-15T07:35:09.956Z,13.59
2023-04-15T07:37:45.400Z,13.67
2023-04-15T07:40:22.516Z,13.85
2023-04-15T07:43:02.401Z,13.93
2023-04-15T07:45:38.755Z,14.03
2023-04-15T07:48:16.947Z,14.04
2023-04-15T07:50:52.939Z,14.22
2023-04-15T07:53:31.766Z,14.24
2023-04-15T07:56:05.822Z,14.16
2023-04-15T07:58:43.978Z,14.40
2023-04-15T08:01:24.920Z,14.36
2023-04-15T08:04:15.385Z,14.56
2023-04-15T08:06:48.583Z,14.69
2023-04-15T08:09:25.181Z,14.74
2023-04-15T08:12:09.689Z,14.85
2023-04-15T08:14:45.872Z,14.87
2023-04-15T08:17:27.595Z,14.90
2023-04-15T08:20:13.489Z,14.93
2023-04-15T08:22:52.342Z,14.95
2023-04-15T08:25:29.883Z,15.05
2023-04-15T08:28:06.264Z,15.23
2023-04-15T08:30:43.684Z,15.31
2023-04-15T08:33:23.110Z,15.42
2023-04-15T08:36:05.474Z,15.51
2023-04-15T08:38:45.354Z,15.58
2023-04-15T08:41:26.682Z,15.69
2023-04-15T08:44:06.042Z,15.77
2023-04-15T08:46:49.160Z,15.83
2023-04-15T08:49:32.427Z,15.87
2023-04-15T08:52:11.128Z,15.93
2023-04-15T08:54:51.376Z,15.95
2023-04-15T08:57:28.460Z,16.00
2023-04-15T09:00:05.936Z,16.00
2023-04-15T09:02:44.911Z,16.00
2023-04-15T09:05:31.797Z,15.96
2023-04-15T09:08:09.058Z,15.87
2023-04-15T09:10:45.614Z,15.83
2023-04-15T09:13:24.553Z,15.92
2023-04-15T09:16:01.789Z,15.91
2023-04-15T09:18:38.374Z,15.97
2023-04-15T09:21:21.475Z,16.09
2023-04-15T09:24:03.927Z,16.21
2023-04-15T09:26:41.259Z,16.32
2023-04-15T09:29:20.354Z,16.44
2023-04-15T09:32:01.154Z,16.47
2023-04-15T09:34:46.162Z,16.51
2023-04-15T09:37:32.119Z,16.55
2023-04-15T09:40:19.563Z,16.59
2023-04-15T09:43:03.679Z,16.67
2023-04-15T09:45:48.576Z,16.69
2023-04-15T09:48:24.924Z,16.81
2023-04-15T09:51:09.586Z,16.93
2023-04-15T09:53:47.337Z,17.04
2023-04-15T09:56:22.180Z,17.02
2023-04-15T09:59:05.165Z,17.11
2023-04-15T10:01:38.232Z,17.20
2023-04-15T10:04:24.412Z,17.14
2023-04-15T10:06:56.164Z,17.37
2023-04-15T10:09:40.951Z,17.35
2023-04-15T10:12:27.424Z,17.24
2023-04-15T10:15:08.372Z,17.37
2023-04-15T10:17:45.004Z,17.39
2023-04-15T10:20:20.988Z,17.39
2023-04-15T10:22:58.431Z,17.43
2023-04-15T10:25:47.318Z,17.51
2023-04-15T10:28:34.871Z,17.51
2023-04-15T10:31:19.041Z,17.52
2023-04-15T10:33:57.913Z,17.55
2023-04-15T10:36:34.475Z,17.64
2023-04-15T10:39:09.708Z,17.73
2023-04-15T10:41:46.992Z,17.75
2023-04-15T10:44:22.115Z,17.89
2023-04-15T10:46:58.782Z,18.00
2023-04-15T10:49:34.764Z,18.03
2023-04-15T10:52:12.994Z,17.99
2023-04-15T10:54:52.041Z,18.02
2023-04-15T10:57:32.590Z,18.08
2023-04-15T11:00:13.169Z,18.16
2023-04-15T11:02:52.741Z,18.14
2023-04-15T11:05:27.523Z,18.18
2023-04-15T11:08:10.952Z,18.26
2023-04-15T11:10:59.721Z,18.37
2023-04-15T11:13:40.050Z,18.43
2023-04-15T11:16:14.256Z,18.50
2023-04-15T11:18:59.561Z,18.56
2023-04-15T11:21:34.817Z,18.64
2023-04-15T11:24:15.448Z,18.63
2023-04-15T11:26:47.977Z,18.68
2023-04-15T11:29:32.261Z,18.78
2023-04-15T11:32:23.193Z,18.92
2023-04-15T11:35:04.986Z,19.00
2023-04-15T11:37:42.467Z,19.07
2023-04-15T11:40:19.080Z,19.06
2023-04-15T11:43:14.263Z,19.28
2023-04-15T11:45:59.486Z,19.45
2023-04-15T11:48:43.627Z,19.70
2023-04-15T11:51:22.084Z,19.89
2023-04-15T11:53:58.746Z,19.95
2023-04-15T11:56:40.584Z,19.98
2023-04-15T11:59:16.430Z,19.99
2023-04-15T12:02:01.818Z,20.05
2023-04-15T12:04:39.224Z,20.18
2023-04-15T12:07:14.331Z,20.31
2023-04-15T12:10:05.032Z,20.46
2023-04-15T12:12:35.243Z,20.50
2023-04-15T12:15:11.518Z,20.42
2023-04-15T12:17:51.465Z,20.38
2023-04-15T12:20:36.765Z,20.36
2023-04-15T12:23:14.273Z,20.30
2023-04-15T12:25:54.426Z,20.30
2023-04-15T12:28:36.557Z,20.45
2023-04-15T12:31:13.695Z,20.49
2023-04-15T12:33:53.578Z,20.66
2023-04-15T12:36:40.540Z,20.71
2023-04-15T12:39:20.369Z,20.67
2023-04-15T12:42:02.708Z,21.18
2023-04-15T12:44:41.702Z,21.27
2023-04-15T12:47:18.858Z,21.17
2023-04-15T12:49:56.253Z,21.25
2023-04-15T12:52:29.241Z,21.30
2023-04-15T12:55:07.049Z,21.63
2023-04-15T12:57:40.311Z,21.70
2023-04-15T13:00:19.983Z,21.86
2023-04-15T13:03:07.482Z,21.61
2023-04-15T13:05:47.092Z,21.35
2023-04-15T13:08:27.835Z,21.10
2023-04-15T13:11:09.361Z,20.90
2023-04-15T13:13:49.841Z,20.94
2023-04-15T13:16:24.135Z,20.86
2023-04-15T13:19:04.605Z,20.81
2023-04-15T13:21:48.720Z,20.81
2023-04-15T13:24:30.423Z,20.89
2023-04-15T13:27:14.737Z,21.00
2023-04-15T13:29:48.594Z,21.29
2023-04-15T13:32:22.281Z,21.39
2023-04-15T13:34:58.638Z,21.50
2023-04-15T13:37:36.631Z,21.42
2023-04-15T13:40:12.143Z,21.36
2023-04-15T13:42:49.015Z,21.24
2023-04-15T13:45:26.690Z,21.44
2023-04-15T13:48:04.573Z,21.47
2023-04-15T13:50:41.833Z,21.95
2023-04-15T13:53:21.291Z,22.34
2023-04-15T13:56:10.908Z,22.45
2023-04-15T13:58:46.307Z,22.49
2023-04-15T14:01:18.134Z,22.50
2023-04-15T14:03:50.905Z,22.43
2023-04-15T14:06:39.598Z,22.18
2023-04-15T14:09:26.156Z,21.93
2023-04-15T14:12:00.290Z,21.61
2023-04-15T14:14:32.298Z,21.52
2023-04-15T14:17:10.083Z,21.26
2023-04-15T14:19:46.561Z,21.18
2023-04-15T14:22:20.263Z,21.03
2023-04-15T14:25:04.345Z,21.05
2023-04-15T14:27:40.980Z,20.97
2023-04-15T14:30:18.620Z,20.84
2023-04-15T14:32:53.577Z,20.67
2023-04-15T14:35:35.988Z,20.36
2023-04-15T14:38:19.579Z,20.33
2023-04-15T14:40:52.392Z,20.29
2023-04-15T14:43:28.451Z,20.13
2023-04-15T14:46:03.531Z,19.96
2023-04-15T14:48:48.766Z,19.79
2023-04-15T14:51:27.420Z,19.70
2023-04-15T14:54:06.418Z,19.63
2023-04-15T14:56:43.232Z,19.55
2023-04-15T14:59:20.818Z,19.52
2023-04-15T15:01:59.071Z,19.45
2023-04-15T15:07:29.238Z,19.09
2023-04-15T15:10:11.383Z,18.21
2023-04-15T15:12:53.862Z,17.34
2023-04-15T15:15:30.854Z,16.66
2023-04-15T15:18:09.375Z,16.44
2023-04-15T15:20:45.413Z,16.07
2023-04-15T15:23:29.076Z,15.86
2023-04-15T15:26:05.037Z,15.83
2023-04-15T15:28:51.332Z,15.72
2023-04-15T15:31:43.465Z,15.63
2023-04-15T15:34:17.762Z,15.73
2023-04-15T15:36:52.796Z,15.83
2023-04-15T15:39:38.924Z,15.91
2023-04-15T15:42:22.813Z,15.92
2023-04-15T15:44:59.854Z,15.78
2023-04-15T15:47:31.242Z,15.64
2023-04-15T15:50:07.780Z,15.63
2023-04-15T15:52:43.375Z,15.70
2023-04-15T15:55:25.948Z,15.61
2023-04-15T15:58:00.479Z,15.41
2023-04-15T16:00:37.527Z,15.46
2023-04-15T16:03:10.229Z,15.59
2023-04-15T16:05:42.634Z,15.35
2023-04-15T16:08:18.614Z,15.00
2023-04-15T16:11:03.514Z,15.01
2023-04-15T16:13:39.841Z,14.85
2023-04-15T16:16:30.435Z,14.60
2023-04-15T16:19:07.598Z,14.58
2023-04-15T16:21:43.873Z,14.26
2023-04-15T16:24:17.752Z,14.21
2023-04-15T16:26:54.039Z,14.19
2023-04-15T16:29:33.588Z,14.20
2023-04-15T16:32:11.890Z,14.20
2023-04-15T16:34:50.687Z,14.24
2023-04-15T16:37:41.199Z,14.15
2023-04-15T16:40:20.120Z,14.35
2023-04-15T16:43:09.815Z,14.56
2023-04-15T16:45:55.633Z,14.53
2023-04-15T16:48:38.852Z,14.66
2023-04-15T16:51:14.086Z,14.74
2023-04-15T16:53:55.409Z,14.89
2023-04-15T16:56:30.976Z,14.87
2023-04-15T16:59:08.461Z,14.82
2023-04-15T17:01:46.065Z,14.64
2023-04-15T17:04:27.535Z,14.57
2023-04-15T17:07:04.356Z,14.57
2023-04-15T17:09:44.804Z,14.62
2023-04-15T17:12:25.763Z,14.60
2023-04-15T17:14:57.867Z,14.56
2023-04-15T17:17:40.381Z,14.56
2023-04-15T17:20:20.154Z,14.68
2023-04-15T17:22:56.518Z,14.57
2023-04-15T17:25:32.742Z,14.68
2023-04-15T17:28:09.946Z,14.64
2023-04-15T17:30:44.715Z,14.74
2023-04-15T17:33:55.904Z,14.65
2023-04-15T17:36:30.807Z,14.70
2023-04-15T17:39:17.610Z,14.53
2023-04-15T17:41:52.868Z,14.62
2023-04-15T17:44:28.311Z,14.56
2023-04-15T17:47:06.391Z,14.62
2023-04-15T17:49:42.853Z,14.39
2023-04-15T17:52:23.077Z,14.70
2023-04-15T17:55:01.673Z,14.77
2023-04-15T17:57:44.659Z,14.77
2023-04-15T18:00:32.148Z,14.81
2023-04-15T18:03:09.655Z,14.81
2023-04-15T18:05:54.279Z,14.83
2023-04-15T18:08:34.153Z,14.83
2023-04-15T18:11:14.687Z,14.77
2023-04-15T18:13:49.505Z,14.66
2023-04-15T18:16:24.511Z,14.79
2023-04-15T18:19:10.884Z,14.82
2023-04-15T18:21:51.777Z,14.70
2023-04-15T18:24:35.963Z,14.63
2023-04-15T18:27:14.068Z,14.43
2023-04-15T18:29:48.531Z,14.47
2023-04-15T18:32:28.100Z,14.36
2023-04-15T18:35:14.364Z,14.46
2023-04-15T18:37:51.559Z,14.27
2023-04-15T18:40:33.749Z,14.40
2023-04-15T18:43:09.988Z,14.32
2023-04-15T18:45:44.635Z,14.20
2023-04-15T18:48:19.577Z,14.09
2023-04-15T18:50:58.955Z,13.96
2023-04-15T18:53:34.619Z,13.98
2023-04-15T18:56:17.312Z,13.96
2023-04-15T18:59:18.254Z,13.99
2023-04-15T19:01:55.339Z,13.96
2023-04-15T19:04:34.385Z,13.96
2023-04-15T19:07:10.749Z,13.85
2023-04-15T19:10:02.952Z,13.77
2023-04-15T19:12:40.502Z,13.74
2023-04-15T19:15:24.156Z,13.80
2023-04-15T19:18:14.783Z,13.93
2023-04-15T19:20:52.982Z,13.73
2023-04-15T19:23:37.418Z,13.72
2023-04-15T19:26:13.799Z,13.72
2023-04-15T19:28:53.403Z,13.88
2023-04-15T19:31:32.060Z,13.91
2023-04-15T19:34:10.363Z,13.87
2023-04-15T19:36:49.114Z,13.74
2023-04-15T19:39:29.114Z,13.84
2023-04-15T19:42:10.858Z,13.82
2023-04-15T19:44:50.783Z,13.82
2023-04-15T19:47:30.165Z,13.75
2023-04-15T19:50:29.177Z,13.78
2023-04-15T19:53:07.944Z,13.68
2023-04-15T19:55:48.062Z,13.70
2023-04-15T19:58:22.240Z,13.64
2023-04-15T20:01:01.957Z,13.64
2023-04-15T20:03:36.934Z,13.65
2023-04-15T20:06:11.991Z,13.63
2023-04-15T20:08:48.474Z,13.53
2023-04-15T20:12:46.035Z,13.54
2023-04-15T20:14:26.489Z,13.57
2023-04-15T20:17:04.461Z,13.58
2023-04-15T20:19:50.778Z,13.56
2023-04-15T20:22:32.201Z,13.55
2023-04-15T20:25:10.558Z,13.55
2023-04-15T20:27:45.278Z,13.54
2023-04-15T20:30:20.054Z,13.61
2023-04-15T20:33:09.162Z,13.60
2023-04-15T20:35:43.442Z,13.62
2023-04-15T20:38:19.226Z,13.61
2023-04-15T20:40:52.816Z,13.58
2023-04-15T20:43:29.042Z,13.55
2023-04-15T20:46:10.093Z,13.61
2023-04-15T20:49:00.400Z,13.59
2023-04-15T20:51:38.050Z,13.66
2023-04-15T20:54:20.450Z,13.68
2023-04-15T20:57:02.462Z,13.68
2023-04-15T20:59:40.027Z,13.69
2023-04-15T21:02:10.483Z,13.65
2023-04-15T21:04:47.427Z,13.67
2023-04-15T21:07:22.282Z,13.66
2023-04-15T21:10:02.576Z,13.59
2023-04-15T21:12:44.640Z,13.62
2023-04-15T21:15:27.686Z,13.53
2023-04-15T21:18:10.728Z,13.52
2023-04-15T21:20:46.695Z,13.51
2023-04-15T21:23:21.866Z,13.40
2023-04-15T21:26:12.764Z,13.29
2023-04-15T21:28:52.384Z,13.17
2023-04-15T21:31:28.504Z,13.24
2023-04-15T21:34:09.887Z,13.20
2023-04-15T21:36:49.866Z,13.28
2023-04-15T21:39:23.671Z,13.30
2023-04-15T21:42:01.446Z,13.29
2023-04-15T21:44:42.942Z,13.30
2023-04-15T21:47:18.355Z,13.32
2023-04-15T21:49:54.447Z,13.34
2023-04-15T21:52:32.145Z,13.41
2023-04-15T21:55:07.593Z,13.42
2023-04-15T21:57:46.997Z,13.42
2023-04-15T22:00:31.041Z,13.38
2023-04-15T22:03:09.751Z,13.26
2023-04-15T22:05:53.493Z,13.39
2023-04-15T22:08:32.120Z,13.39
2023-04-15T22:11:24.716Z,13.40
2023-04-15T22:14:08.949Z,13.36
2023-04-15T22:16:44.222Z,13.36
2023-04-15T22:19:18.389Z,13.33
2023-04-15T22:21:59.073Z,13.31
2023-04-15T22:24:40.875Z,13.27
2023-04-15T22:27:19.818Z,13.17
2023-04-15T22:30:01.308Z,13.13
2023-04-15T22:32:42.267Z,12.96
2023-04-15T22:35:17.082Z,12.40
2023-04-15T22:37:56.094Z,11.75
2023-04-15T22:40:46.122Z,11.67
2023-04-15T22:43:28.821Z,11.60
2023-04-15T22:46:18.023Z,11.56
2023-04-15T22:48:59.737Z,11.71
2023-04-15T22:51:36.878Z,11.80
2023-04-15T22:54:13.888Z,11.82
2023-04-15T22:57:01.777Z,11.78
2023-04-15T22:59:40.511Z,11.67
2023-04-15T23:02:13.768Z,11.96
2023-04-15T23:04:49.184Z,11.99
2023-04-15T23:07:28.109Z,12.02
2023-04-15T23:10:11.533Z,11.98
2023-04-15T23:12:52.164Z,11.85
2023-04-15T23:15:34.671Z,11.83
2023-04-15T23:18:14.167Z,11.82
2023-04-15T23:20:51.647Z,11.92
2023-04-15T23:23:30.396Z,11.93
2023-04-15T23:26:04.714Z,11.97
2023-04-15T23:28:48.089Z,11.70
2023-04-15T23:31:22.015Z,11.76
2023-04-15T23:33:57.978Z,11.77
2023-04-15T23:36:33.502Z,11.90
2023-04-15T23:39:07.570Z,11.85
2023-04-15T23:41:48.261Z,11.87
2023-04-15T23:44:35.687Z,11.91
2023-04-15T23:47:17.508Z,11.95
2023-04-15T23:50:06.021Z,11.89
2023-04-15T23:52:46.584Z,11.80
2023-04-15T23:55:24.797Z,11.78
2023-04-15T23:57:57.792Z,11.89
